Currently 61°F in Lake Elsinore, California, USA
61°F
72°F / 54°F
9 mph S
0.06"
Tuesday, May 5, 2026 7:11 PM PDT

Lake Elsinore, California Weather Summary
Last 36 Hours

Temperature Winds Hourly Humidity Dewpoint
Time Report Norm Report Norm Max Gusts Precip. Rpt. Norm Rpt. Norm Pressure
1Tue 07:11 PM  61.2°F  70°F  9 mph S  5 mph  13 mph  0.00"  55%  52%  44°F  51°F  N/A
Tue 07:00 PM  61.4°F  71°F  7 mph S  5 mph  20 mph  0.00"  55%  51%  44°F  51°F  N/A
Tue 06:00 PM  62.5°F  75°F  11 mph S  5 mph  20 mph  0.00"  51%  45%  43°F  51°F  N/A
Tue 05:00 PM  63.7°F  78°F  12 mph S  6 mph  21 mph  0.00"  47%  41%  42°F  51°F  N/A
Tue 04:00 PM  68.3°F  80°F  6 mph S  6 mph  19 mph  0.00"  41%  38%  43°F  51°F  N/A
Tue 03:00 PM  66.4°F  80°F  calm  5 mph  18 mph  0.00"  41%  37%  41°F  51°F  N/A
2Tue 02:00 PM  71.6°F  80°F  calm  4 mph  19 mph  0.00"  36%  38%  42°F  51°F  N/A
Tue 01:00 PM  68.0°F  78°F  9 mph S  3 mph  13 mph  0.00"  43%  40%  44°F  51°F  N/A
Tue 12:00 PM  69.7°F  75°F  2 mph S  3 mph  13 mph  0.00"  41%  43%  44°F  51°F  N/A
Tue 11:00 AM  64.6°F  72°F  6 mph S  3 mph  14 mph  0.00"  53%  49%  46°F  51°F  N/A
Tue 10:00 AM  64.0°F  68°F  2 mph S  2 mph  7 mph  0.00"  56%  57%  48°F  52°F  N/A
Tue 09:00 AM  57.8°F  64°F  4 mph S  2 mph  5 mph  0.00"  73%  66%  49°F  52°F  N/A
Tue 08:00 AM  57.3°F  59°F  calm  1 mph  2 mph  0.00"  85%  76%  53°F  52°F  N/A
Tue 07:00 AM  54.8°F  55°F  calm  1 mph  none  0.00"  84%  82%  50°F  49°F  N/A
3Tue 06:38 AM  54.0°F  54°F  calm  1 mph  none  ----  83%  82%  49°F  49°F  N/A
Tue 06:00 AM  54.7°F  54°F  calm  1 mph  none  0.04"  83%  81%  49°F  48°F  N/A
Tue 05:00 AM  54.9°F  55°F  calm  1 mph  none  0.00"  82%  81%  49°F  49°F  N/A
Tue 04:00 AM  55.2°F  55°F  calm  1 mph  none  0.00"  81%  80%  49°F  49°F  N/A
Tue 03:00 AM  55.2°F  56°F  calm  1 mph  none  0.00"  80%  79%  49°F  49°F  N/A
Tue 02:00 AM  55.2°F  57°F  calm  1 mph  none  0.01"  79%  77%  48°F  49°F  N/A
Tue 01:00 AM  56.0°F  58°F  calm  1 mph  none  0.01"  77%  76%  48°F  50°F  N/A
Tue 12:00 AM  57.0°F  59°F  calm  1 mph  none  0.01"  72%  74%  48°F  50°F  N/A
Mon 11:00 PM  58.1°F  60°F  calm  1 mph  none  0.00"  64%  72%  45°F  51°F  N/A
Mon 10:00 PM  58.2°F  62°F  calm  2 mph  16 mph  0.00"  62%  70%  45°F  51°F  N/A
Mon 09:00 PM  57.6°F  64°F  8 mph S  3 mph  19 mph  0.00"  67%  65%  46°F  51°F  N/A
Mon 08:00 PM  59.4°F  66°F  10 mph S  3 mph  25 mph  0.00"  61%  58%  46°F  51°F  N/A
Mon 07:00 PM  61.5°F  71°F  10 mph S  5 mph  21 mph  0.00"  57%  51%  46°F  51°F  N/A
Mon 06:00 PM  63.9°F  75°F  12 mph S  5 mph  21 mph  0.00"  51%  45%  45°F  51°F  N/A
Mon 05:00 PM  66.5°F  78°F  10 mph S  6 mph  21 mph  0.00"  46%  40%  44°F  51°F  N/A
Mon 04:00 PM  70.8°F  80°F  calm  6 mph  15 mph  0.00"  38%  38%  43°F  51°F  N/A
Mon 03:00 PM  70.9°F  81°F  calm  5 mph  14 mph  0.00"  34%  37%  40°F  51°F  N/A
Mon 02:00 PM  71.8°F  80°F  calm  4 mph  19 mph  0.00"  35%  37%  41°F  50°F  N/A
Mon 01:00 PM  67.4°F  78°F  5 mph S  3 mph  16 mph  0.00"  42%  39%  43°F  50°F  N/A
Mon 12:00 PM  68.9°F  76°F  8 mph S  3 mph  18 mph  0.00"  41%  43%  43°F  50°F  N/A
Mon 11:00 AM  66.9°F  72°F  6 mph S  2 mph  14 mph  0.00"  43%  48%  43°F  51°F  N/A
Mon 10:00 AM  63.8°F  68°F  7 mph S  2 mph  15 mph  0.00"  50%  56%  44°F  51°F  N/A
Mon 09:00 AM  63.5°F  64°F  calm  2 mph  4 mph  0.00"  53%  65%  45°F  52°F  N/A
Mon 08:00 AM  59.0°F  59°F  2 mph S  1 mph  5 mph  0.00"  62%  75%  46°F  51°F  N/A

  1. Current weather data. No green row appears if the current weather data is also the high or low for the current day.
  2. High temperature for the current day.
  3. Low temperature for the current day.

The Lake Elsinore, California weather pages are a service of WeatherCurrents. Lake Elsinore is located south of Corona and north of the Temecula Valley, in southwestern Riverside County, California.
Copyright ©Tue May 05 19:12:04 PDT 2026  WeatherCurrents. All rights reserved. - Submit questions and comments - Privacy Policy

This page automatically refreshes every 10 minutes.